Time;durP1;ratioP1;P1;durP2;ratioP2;P2;SDS_P1;SDS_P2;PMS_P1;PMS_P2;Temp;Humidity;BMP_temperature;BMP_pressure;BME280_temperature;BME280_humidity;BME280_pressure;Samples;Min_cycle;Max_cycle;Signal;HPM_P1;HPM_P2
2024/03/26 00:02:23;;;;;;;7.57;2.30;;;;;;;;;;4996679;28;20046;-77
2024/03/26 00:04:49;;;;;;;3.40;1.83;;;;;;;;;;4968384;28;20058;-76
2024/03/26 00:07:14;;;;;;;6.40;2.20;;;;;;;;;;4995889;28;20044;-76
2024/03/26 00:09:39;;;;;;;5.43;2.35;;;;;;;;;;5001373;28;20547;-77
2024/03/26 00:12:05;;;;;;;3.08;1.85;;;;;;;;;;4994986;28;20038;-78
2024/03/26 00:14:30;;;;;;;5.05;2.25;;;;;;;;;;4988710;28;20070;-77
2024/03/26 00:16:56;;;;;;;5.05;2.00;;;;;;;;;;5001011;28;20034;-76
2024/03/26 00:19:21;;;;;;;4.47;1.48;;;;;;;;;;4998538;28;20033;-76
2024/03/26 00:21:46;;;;;;;3.50;1.75;;;;;;;;;;4970165;28;20039;-75
2024/03/26 00:24:12;;;;;;;2.83;1.50;;;;;;;;;;4998169;28;20273;-77
2024/03/26 00:26:37;;;;;;;2.47;1.90;;;;;;;;;;5005429;28;20114;-76
2024/03/26 00:29:03;;;;;;;7.38;1.98;;;;;;;;;;5000079;28;20034;-75
2024/03/26 00:31:33;;;;;;;1.95;1.40;;;;;;;;;;4988086;28;20052;-76
2024/03/26 00:34:02;;;;;;;3.63;1.17;;;;;;;;;;4980360;28;20044;-76
2024/03/26 00:36:28;;;;;;;2.67;1.77;;;;;;;;;;4985233;28;20238;-77
2024/03/26 00:38:53;;;;;;;3.63;1.50;;;;;;;;;;5001122;28;20038;-77
2024/03/26 00:41:19;;;;;;;2.80;1.25;;;;;;;;;;4994383;28;20049;-76
2024/03/26 00:43:45;;;;;;;2.88;1.50;;;;;;;;;;5001102;28;20490;-77
2024/03/26 00:46:10;;;;;;;3.60;1.58;;;;;;;;;;5000979;28;20558;-76
2024/03/26 00:48:35;;;;;;;2.10;1.42;;;;;;;;;;4998223;28;20033;-76
2024/03/26 00:51:01;;;;;;;5.05;1.70;;;;;;;;;;4996257;28;20034;-78
2024/03/26 00:53:27;;;;;;;4.47;2.05;;;;;;;;;;4970890;28;20119;-77
2024/03/26 00:55:52;;;;;;;1.25;1.05;;;;;;;;;;4990668;28;20109;-76
2024/03/26 00:58:17;;;;;;;3.70;1.23;;;;;;;;;;4997861;28;20605;-77
2024/03/26 01:00:43;;;;;;;3.58;1.92;;;;;;;;;;4996941;28;20436;-76
2024/03/26 01:03:08;;;;;;;4.45;2.00;;;;;;;;;;4982733;28;20069;-77
2024/03/26 01:05:33;;;;;;;4.57;2.00;;;;;;;;;;4983133;28;20030;-76
2024/03/26 01:07:59;;;;;;;4.22;1.98;;;;;;;;;;4991509;28;20033;-76
2024/03/26 01:10:24;;;;;;;4.53;1.90;;;;;;;;;;4993411;28;20042;-76
2024/03/26 01:12:50;;;;;;;5.43;1.83;;;;;;;;;;4984891;28;20037;-75
2024/03/26 01:15:15;;;;;;;4.78;1.73;;;;;;;;;;4996359;28;20649;-77
2024/03/26 01:17:41;;;;;;;3.95;1.70;;;;;;;;;;4993935;28;20038;-77
2024/03/26 01:20:07;;;;;;;5.15;1.77;;;;;;;;;;5004708;28;20116;-76
2024/03/26 01:22:32;;;;;;;2.90;1.58;;;;;;;;;;4980921;28;20045;-75
2024/03/26 01:24:58;;;;;;;1.58;1.23;;;;;;;;;;4994451;28;20501;-77
2024/03/26 01:27:23;;;;;;;1.90;1.20;;;;;;;;;;4973161;28;20065;-75
2024/03/26 01:29:48;;;;;;;4.07;1.83;;;;;;;;;;4997103;28;20037;-77
2024/03/26 01:32:14;;;;;;;2.78;1.92;;;;;;;;;;5005219;28;20044;-77
2024/03/26 01:34:39;;;;;;;3.17;1.98;;;;;;;;;;4993734;28;20038;-77
2024/03/26 01:37:04;;;;;;;7.43;2.13;;;;;;;;;;4986959;28;20088;-76
2024/03/26 01:39:30;;;;;;;4.85;1.70;;;;;;;;;;5001920;28;22072;-77
2024/03/26 01:41:55;;;;;;;5.95;1.58;;;;;;;;;;4991882;28;20046;-76
2024/03/26 01:44:20;;;;;;;3.42;1.55;;;;;;;;;;4998337;28;20037;-76
2024/03/26 01:46:46;;;;;;;7.97;2.17;;;;;;;;;;5010867;28;20509;-75
2024/03/26 01:49:12;;;;;;;3.33;1.80;;;;;;;;;;5013404;28;20030;-77
2024/03/26 01:51:39;;;;;;;4.22;1.45;;;;;;;;;;5005989;28;20033;-76
2024/03/26 01:54:05;;;;;;;3.88;2.20;;;;;;;;;;4994677;28;20034;-75
2024/03/26 01:56:31;;;;;;;4.00;1.70;;;;;;;;;;5011855;28;20103;-77
2024/03/26 01:58:58;;;;;;;5.28;1.90;;;;;;;;;;5010262;28;20184;-77
2024/03/26 02:01:26;;;;;;;5.13;2.20;;;;;;;;;;4997181;28;20476;-77
2024/03/26 02:03:52;;;;;;;3.22;1.95;;;;;;;;;;5005895;28;20038;-76
2024/03/26 02:06:17;;;;;;;3.25;1.58;;;;;;;;;;4996325;28;20037;-77
2024/03/26 02:08:43;;;;;;;3.92;1.77;;;;;;;;;;4999028;28;20152;-76
2024/03/26 02:11:09;;;;;;;4.45;1.60;;;;;;;;;;5012428;28;20037;-77
2024/03/26 02:13:34;;;;;;;5.88;2.30;;;;;;;;;;4998977;28;20038;-75
2024/03/26 02:16:00;;;;;;;2.55;1.85;;;;;;;;;;5004472;28;20041;-77
2024/03/26 02:18:25;;;;;;;5.32;1.83;;;;;;;;;;5002479;28;20172;-76
2024/03/26 02:20:51;;;;;;;6.47;2.28;;;;;;;;;;5011937;28;20045;-77
2024/03/26 02:23:20;;;;;;;4.57;2.05;;;;;;;;;;5003090;28;20517;-77
2024/03/26 02:25:45;;;;;;;1.88;1.20;;;;;;;;;;4995137;28;20116;-77
2024/03/26 02:28:11;;;;;;;5.03;2.15;;;;;;;;;;5007837;28;20537;-77
2024/03/26 02:30:36;;;;;;;4.43;1.92;;;;;;;;;;4992791;28;20048;-74
2024/03/26 02:33:01;;;;;;;2.75;1.98;;;;;;;;;;4994806;28;20609;-77
2024/03/26 02:35:27;;;;;;;8.18;2.40;;;;;;;;;;4991881;28;20038;-77
2024/03/26 02:37:53;;;;;;;6.45;2.13;;;;;;;;;;5005717;28;20037;-76
2024/03/26 02:40:18;;;;;;;3.95;2.00;;;;;;;;;;5012295;28;20048;-77
2024/03/26 02:42:44;;;;;;;5.35;1.90;;;;;;;;;;5007136;28;20042;-76
2024/03/26 02:45:10;;;;;;;5.43;2.22;;;;;;;;;;5011125;28;20050;-76
2024/03/26 02:47:35;;;;;;;3.30;2.20;;;;;;;;;;4980832;28;20045;-75
2024/03/26 02:50:00;;;;;;;0.98;0.95;;;;;;;;;;4980749;28;20728;-77
2024/03/26 02:52:26;;;;;;;5.32;2.20;;;;;;;;;;4988197;28;20457;-74
2024/03/26 02:54:51;;;;;;;5.80;2.10;;;;;;;;;;4994851;28;20029;-76
2024/03/26 02:57:17;;;;;;;2.25;1.60;;;;;;;;;;5007395;28;20036;-77
2024/03/26 02:59:42;;;;;;;2.88;1.55;;;;;;;;;;5008620;28;20338;-77
2024/03/26 03:02:07;;;;;;;6.93;2.03;;;;;;;;;;5010508;28;20057;-78
2024/03/26 03:04:32;;;;;;;3.92;1.98;;;;;;;;;;4994241;28;20042;-77
2024/03/26 03:06:58;;;;;;;3.65;1.77;;;;;;;;;;5009425;28;20045;-76
2024/03/26 03:09:23;;;;;;;7.85;2.60;;;;;;;;;;4998711;28;20113;-76
2024/03/26 03:11:48;;;;;;;3.47;1.98;;;;;;;;;;5005546;28;20042;-75
2024/03/26 03:14:14;;;;;;;2.67;2.25;;;;;;;;;;4985938;28;20551;-76
2024/03/26 03:16:39;;;;;;;6.65;2.92;;;;;;;;;;5007991;28;20199;-77
2024/03/26 03:19:04;;;;;;;3.60;2.30;;;;;;;;;;4989394;28;20034;-77
2024/03/26 03:21:30;;;;;;;5.07;2.55;;;;;;;;;;5003119;28;20037;-77
2024/03/26 03:23:55;;;;;;;4.55;2.00;;;;;;;;;;5003228;28;20033;-76
2024/03/26 03:26:20;;;;;;;2.63;1.27;;;;;;;;;;4981871;28;20038;-77
2024/03/26 03:28:46;;;;;;;2.85;1.77;;;;;;;;;;4999727;28;20113;-76
2024/03/26 03:31:11;;;;;;;3.42;1.60;;;;;;;;;;4997395;28;20140;-77
2024/03/26 03:33:36;;;;;;;4.30;1.65;;;;;;;;;;5002543;28;20041;-77
2024/03/26 03:36:02;;;;;;;6.65;2.35;;;;;;;;;;5013211;28;20429;-76
2024/03/26 03:38:27;;;;;;;4.95;2.15;;;;;;;;;;4983702;28;20123;-77
2024/03/26 03:40:53;;;;;;;6.68;2.03;;;;;;;;;;5013896;28;20050;-75
2024/03/26 03:43:18;;;;;;;2.97;1.83;;;;;;;;;;4997734;28;20035;-76
2024/03/26 03:45:43;;;;;;;5.53;2.50;;;;;;;;;;4995492;28;20417;-76
2024/03/26 03:48:09;;;;;;;2.85;1.13;;;;;;;;;;5002964;28;20041;-75
2024/03/26 03:50:34;;;;;;;5.07;2.35;;;;;;;;;;5000951;28;20052;-76
2024/03/26 03:53:00;;;;;;;6.20;2.50;;;;;;;;;;5008604;28;20069;-77
2024/03/26 03:55:25;;;;;;;4.25;2.28;;;;;;;;;;4985606;28;20080;-77
2024/03/26 03:57:50;;;;;;;4.60;2.53;;;;;;;;;;5009808;28;20041;-77
2024/03/26 04:00:16;;;;;;;3.97;2.30;;;;;;;;;;4974853;28;20030;-77
2024/03/26 04:02:41;;;;;;;1.40;1.00;;;;;;;;;;5002060;28;20532;-77
2024/03/26 04:05:07;;;;;;;4.95;2.20;;;;;;;;;;4990256;28;20041;-76
2024/03/26 04:07:33;;;;;;;3.13;1.98;;;;;;;;;;4990320;28;20039;-76
2024/03/26 04:09:59;;;;;;;3.42;2.05;;;;;;;;;;5004920;28;20075;-77
2024/03/26 04:12:24;;;;;;;1.95;1.23;;;;;;;;;;4997873;28;20482;-76
2024/03/26 04:14:50;;;;;;;5.35;1.90;;;;;;;;;;4990116;28;20514;-77
2024/03/26 04:17:15;;;;;;;3.67;1.70;;;;;;;;;;4997386;28;20062;-77
2024/03/26 04:19:40;;;;;;;3.53;1.75;;;;;;;;;;5009109;28;20770;-76
2024/03/26 04:22:06;;;;;;;5.57;2.30;;;;;;;;;;5007278;28;20409;-76
2024/03/26 04:24:31;;;;;;;9.77;2.25;;;;;;;;;;5004977;28;20053;-77
2024/03/26 04:26:56;;;;;;;4.57;1.67;;;;;;;;;;5001506;28;20087;-77
2024/03/26 04:29:22;;;;;;;4.50;1.95;;;;;;;;;;4991815;28;20029;-77
2024/03/26 04:31:47;;;;;;;5.85;2.25;;;;;;;;;;4992988;28;20509;-76
2024/03/26 04:34:12;;;;;;;6.88;2.15;;;;;;;;;;4996271;28;20065;-77
2024/03/26 04:36:38;;;;;;;5.65;1.95;;;;;;;;;;5005623;28;20104;-77
2024/03/26 04:39:03;;;;;;;4.25;2.28;;;;;;;;;;5002148;28;20127;-76
2024/03/26 04:41:28;;;;;;;4.70;2.15;;;;;;;;;;5003600;28;20052;-77
2024/03/26 04:43:54;;;;;;;3.80;2.20;;;;;;;;;;5000306;28;20033;-77
2024/03/26 04:46:19;;;;;;;4.10;1.75;;;;;;;;;;4990798;28;20034;-77
2024/03/26 04:48:45;;;;;;;3.65;2.03;;;;;;;;;;5008289;28;20512;-78
2024/03/26 04:51:10;;;;;;;3.08;2.08;;;;;;;;;;4992883;28;20039;-78
2024/03/26 04:53:35;;;;;;;6.43;1.90;;;;;;;;;;5008150;28;20663;-77
2024/03/26 04:56:01;;;;;;;6.18;2.28;;;;;;;;;;5010071;28;20079;-77
2024/03/26 04:58:26;;;;;;;3.00;1.40;;;;;;;;;;5008989;28;20135;-77
2024/03/26 05:00:51;;;;;;;5.72;2.38;;;;;;;;;;5012195;28;20037;-77
2024/03/26 05:03:17;;;;;;;3.90;2.17;;;;;;;;;;5005585;28;20042;-77
2024/03/26 05:05:42;;;;;;;4.90;2.22;;;;;;;;;;5010225;28;20073;-76
2024/03/26 05:08:07;;;;;;;4.35;2.35;;;;;;;;;;4992195;28;20038;-74
2024/03/26 05:10:33;;;;;;;5.65;2.28;;;;;;;;;;5008088;28;20462;-76
2024/03/26 05:12:59;;;;;;;5.55;2.75;;;;;;;;;;5005437;28;20030;-77
2024/03/26 05:15:24;;;;;;;4.82;2.10;;;;;;;;;;5006335;28;20048;-77
2024/03/26 05:17:49;;;;;;;3.83;1.92;;;;;;;;;;4981835;28;20085;-77
2024/03/26 05:20:15;;;;;;;13.73;4.38;;;;;;;;;;5002739;28;20040;-78
2024/03/26 05:22:40;;;;;;;21.13;7.70;;;;;;;;;;5010882;28;20124;-77
2024/03/26 05:25:06;;;;;;;21.00;7.05;;;;;;;;;;4976984;28;20118;-76
2024/03/26 05:27:32;;;;;;;8.98;3.70;;;;;;;;;;4988533;28;20037;-77
2024/03/26 05:29:57;;;;;;;7.47;3.10;;;;;;;;;;4971359;28;20430;-76
2024/03/26 05:32:22;;;;;;;9.05;4.13;;;;;;;;;;4990432;28;20118;-77
2024/03/26 05:34:51;;;;;;;6.45;2.50;;;;;;;;;;4985610;28;20387;-76
2024/03/26 05:37:17;;;;;;;5.38;2.88;;;;;;;;;;4998997;28;20040;-76
2024/03/26 05:39:43;;;;;;;7.78;2.35;;;;;;;;;;4987540;28;20031;-77
2024/03/26 05:42:09;;;;;;;4.40;2.22;;;;;;;;;;4983899;28;20050;-76
2024/03/26 05:44:35;;;;;;;4.05;2.38;;;;;;;;;;4997601;28;20387;-76
2024/03/26 05:47:00;;;;;;;4.20;2.63;;;;;;;;;;4990609;28;20048;-75
2024/03/26 05:49:26;;;;;;;4.68;2.55;;;;;;;;;;4987307;28;20034;-77
2024/03/26 05:51:51;;;;;;;6.22;2.65;;;;;;;;;;4997882;28;20037;-77
2024/03/26 05:54:17;;;;;;;4.10;2.50;;;;;;;;;;4986737;28;20026;-75
2024/03/26 05:56:42;;;;;;;6.28;2.63;;;;;;;;;;5001560;28;20045;-76
2024/03/26 05:59:08;;;;;;;4.45;2.70;;;;;;;;;;5002139;28;20584;-76
2024/03/26 06:01:33;;;;;;;5.68;3.15;;;;;;;;;;5001969;28;20045;-77
2024/03/26 06:03:59;;;;;;;7.85;3.85;;;;;;;;;;5004141;28;20033;-76
2024/03/26 06:06:24;;;;;;;7.68;3.13;;;;;;;;;;5002795;28;20039;-77
2024/03/26 06:08:50;;;;;;;6.03;3.17;;;;;;;;;;4999014;28;20083;-76
2024/03/26 06:11:15;;;;;;;4.88;3.10;;;;;;;;;;5002744;28;20518;-77
2024/03/26 06:13:40;;;;;;;3.08;1.67;;;;;;;;;;4997034;28;20502;-78
2024/03/26 06:16:08;;;;;;;5.40;2.33;;;;;;;;;;4996854;28;20517;-76
2024/03/26 06:18:34;;;;;;;3.55;1.90;;;;;;;;;;4997467;28;20066;-76
2024/03/26 06:21:00;;;;;;;6.35;2.70;;;;;;;;;;4996306;28;20042;-77
2024/03/26 06:23:25;;;;;;;4.68;2.90;;;;;;;;;;4972333;28;20918;-78
2024/03/26 06:25:51;;;;;;;3.83;2.63;;;;;;;;;;4996448;28;20034;-77
2024/03/26 06:28:18;;;;;;;7.70;3.65;;;;;;;;;;4990220;28;20034;-77
2024/03/26 06:30:43;;;;;;;4.47;2.40;;;;;;;;;;4974231;28;20042;-78
2024/03/26 06:33:11;;;;;;;8.00;3.42;;;;;;;;;;4993969;28;20451;-78
2024/03/26 06:35:37;;;;;;;8.07;3.33;;;;;;;;;;4975941;28;20045;-78
2024/03/26 06:38:05;;;;;;;9.07;3.60;;;;;;;;;;4959801;28;20040;-76
2024/03/26 06:40:30;;;;;;;7.53;3.67;;;;;;;;;;4964941;28;20101;-77
2024/03/26 06:42:56;;;;;;;6.38;4.18;;;;;;;;;;4989886;28;20037;-77
2024/03/26 06:45:21;;;;;;;3.85;2.25;;;;;;;;;;4980595;28;20057;-78
2024/03/26 06:47:47;;;;;;;4.85;3.22;;;;;;;;;;4989875;28;20124;-78
2024/03/26 06:50:12;;;;;;;8.45;4.32;;;;;;;;;;4987355;28;20033;-78
2024/03/26 06:52:38;;;;;;;7.03;2.80;;;;;;;;;;4984256;28;20058;-78
2024/03/26 06:55:03;;;;;;;6.10;3.13;;;;;;;;;;4993257;28;20882;-77
2024/03/26 06:57:29;;;;;;;6.03;3.00;;;;;;;;;;5003122;28;20096;-78
2024/03/26 06:59:54;;;;;;;6.97;3.53;;;;;;;;;;4987305;28;20135;-77
2024/03/26 07:02:20;;;;;;;4.03;2.40;;;;;;;;;;5007146;28;20072;-78
2024/03/26 07:04:45;;;;;;;5.93;3.67;;;;;;;;;;4978736;28;20042;-77
2024/03/26 07:07:11;;;;;;;4.97;3.30;;;;;;;;;;5006722;28;20120;-77
2024/03/26 07:09:38;;;;;;;5.63;3.17;;;;;;;;;;5009728;28;20034;-78
2024/03/26 07:12:04;;;;;;;6.32;3.03;;;;;;;;;;4996236;28;20034;-78
2024/03/26 07:14:29;;;;;;;6.90;3.45;;;;;;;;;;4991852;28;20108;-77
2024/03/26 07:16:54;;;;;;;6.57;3.22;;;;;;;;;;4992347;28;20111;-77
2024/03/26 07:19:20;;;;;;;5.78;3.28;;;;;;;;;;5016322;28;20065;-77
2024/03/26 07:21:45;;;;;;;8.13;3.47;;;;;;;;;;4996921;28;20117;-78
2024/03/26 07:24:11;;;;;;;6.82;3.22;;;;;;;;;;5001106;28;20477;-78
2024/03/26 07:26:36;;;;;;;3.40;2.55;;;;;;;;;;5008705;28;20033;-77
2024/03/26 07:29:02;;;;;;;9.07;4.20;;;;;;;;;;5007677;28;20034;-78
2024/03/26 07:31:27;;;;;;;7.50;3.42;;;;;;;;;;4992066;28;20403;-79
2024/03/26 07:33:53;;;;;;;6.90;3.67;;;;;;;;;;4991908;28;20124;-78
2024/03/26 07:36:18;;;;;;;6.28;3.15;;;;;;;;;;4981322;28;20552;-78
2024/03/26 07:38:44;;;;;;;3.85;2.50;;;;;;;;;;4989532;28;20173;-79
2024/03/26 07:41:09;;;;;;;4.95;3.03;;;;;;;;;;4986535;28;20048;-79
2024/03/26 07:43:35;;;;;;;6.50;3.85;;;;;;;;;;4997275;28;20038;-79
2024/03/26 07:46:00;;;;;;;4.30;3.60;;;;;;;;;;4997227;28;20046;-79
2024/03/26 07:48:26;;;;;;;7.32;3.58;;;;;;;;;;4976699;28;20041;-79
2024/03/26 07:50:51;;;;;;;5.13;3.42;;;;;;;;;;5007654;28;20039;-79
2024/03/26 07:53:17;;;;;;;6.88;3.95;;;;;;;;;;4983867;28;20112;-80
2024/03/26 07:55:42;;;;;;;5.63;3.45;;;;;;;;;;4966214;28;20069;-80
2024/03/26 07:58:08;;;;;;;6.60;3.33;;;;;;;;;;5000180;28;20049;-79
2024/03/26 08:00:33;;;;;;;5.63;3.00;;;;;;;;;;4979807;28;20042;-78
2024/03/26 08:02:59;;;;;;;8.45;3.63;;;;;;;;;;4992197;28;20052;-80
2024/03/26 08:05:25;;;;;;;4.05;2.92;;;;;;;;;;4987120;28;20045;-79
2024/03/26 08:07:50;;;;;;;6.68;3.75;;;;;;;;;;4975201;28;20034;-80
2024/03/26 08:10:17;;;;;;;5.93;3.10;;;;;;;;;;4997848;28;20080;-78
2024/03/26 08:12:42;;;;;;;8.25;3.42;;;;;;;;;;4993555;28;20050;-79
2024/03/26 08:15:08;;;;;;;4.72;3.63;;;;;;;;;;4979919;28;20120;-78
2024/03/26 08:17:33;;;;;;;6.93;3.15;;;;;;;;;;4982554;28;20041;-79
2024/03/26 08:19:59;;;;;;;5.78;3.45;;;;;;;;;;4983142;28;20041;-78
2024/03/26 08:22:24;;;;;;;5.68;3.22;;;;;;;;;;5007366;28;20041;-78
2024/03/26 08:24:49;;;;;;;5.32;3.85;;;;;;;;;;5004359;28;20121;-79
2024/03/26 08:27:14;;;;;;;5.88;3.63;;;;;;;;;;5004052;28;20041;-80
2024/03/26 08:29:40;;;;;;;6.53;3.67;;;;;;;;;;4974508;28;20034;-80
2024/03/26 08:32:05;;;;;;;6.70;3.53;;;;;;;;;;5004243;28;20048;-80
2024/03/26 08:34:31;;;;;;;8.38;3.35;;;;;;;;;;4999401;28;20145;-79
2024/03/26 08:36:56;;;;;;;5.13;3.35;;;;;;;;;;4986854;28;20504;-80
2024/03/26 08:39:22;;;;;;;6.00;3.90;;;;;;;;;;4994218;28;20498;-79
2024/03/26 08:41:47;;;;;;;8.68;3.90;;;;;;;;;;5003331;28;20556;-79
2024/03/26 08:44:12;;;;;;;5.85;3.75;;;;;;;;;;5005177;28;20045;-78
2024/03/26 08:46:38;;;;;;;3.88;2.67;;;;;;;;;;4994639;28;20037;-78
2024/03/26 08:49:03;;;;;;;5.85;3.42;;;;;;;;;;4985796;28;20445;-79
2024/03/26 08:51:29;;;;;;;6.95;3.53;;;;;;;;;;4983042;28;20045;-80
2024/03/26 08:53:58;;;;;;;6.03;3.70;;;;;;;;;;5002592;28;20131;-79
2024/03/26 08:56:24;;;;;;;5.10;3.60;;;;;;;;;;4997065;28;20042;-80
2024/03/26 08:58:55;;;;;;;4.70;3.25;;;;;;;;;;4986370;28;20092;-79
2024/03/26 09:01:20;;;;;;;;;;;;;;;;;;4983856;28;20091;-78
2024/03/26 09:03:46;;;;;;;4.70;3.10;;;;;;;;;;4994767;28;19926;-79
2024/03/26 09:06:11;;;;;;;3.92;2.80;;;;;;;;;;5001994;28;20050;-79
2024/03/26 09:08:36;;;;;;;4.95;2.70;;;;;;;;;;4990120;28;20038;-79
2024/03/26 09:11:03;;;;;;;4.65;3.20;;;;;;;;;;5010551;28;20145;-80
2024/03/26 09:13:29;;;;;;;6.78;3.25;;;;;;;;;;4985347;28;20068;-77
2024/03/26 09:15:54;;;;;;;3.63;2.47;;;;;;;;;;4991973;28;20080;-79
2024/03/26 09:18:19;;;;;;;6.85;3.05;;;;;;;;;;4982137;28;20033;-79
2024/03/26 09:20:45;;;;;;;4.90;3.50;;;;;;;;;;4986908;28;20042;-80
2024/03/26 09:23:10;;;;;;;5.63;3.20;;;;;;;;;;4991945;28;20044;-79
2024/03/26 09:25:35;;;;;;;6.57;3.17;;;;;;;;;;4982957;28;20531;-78
2024/03/26 09:28:01;;;;;;;5.18;3.15;;;;;;;;;;4996183;28;20153;-79
2024/03/26 09:30:27;;;;;;;2.78;2.42;;;;;;;;;;4994765;28;20486;-79
2024/03/26 09:32:56;;;;;;;6.45;3.67;;;;;;;;;;4976604;28;20033;-78
2024/03/26 09:35:22;;;;;;;3.95;3.33;;;;;;;;;;4990438;28;20044;-79
2024/03/26 09:37:47;;;;;;;4.20;3.08;;;;;;;;;;4979063;28;20042;-79
2024/03/26 09:40:13;;;;;;;8.60;3.33;;;;;;;;;;4998471;28;20529;-79
2024/03/26 09:42:41;;;;;;;6.40;3.20;;;;;;;;;;4970866;28;20045;-79
2024/03/26 09:45:08;;;;;;;3.90;2.90;;;;;;;;;;4970967;28;20065;-78
2024/03/26 09:47:34;;;;;;;4.25;2.28;;;;;;;;;;4983983;28;20099;-78
2024/03/26 09:50:04;;;;;;;4.10;2.70;;;;;;;;;;5002256;28;20038;-78
2024/03/26 09:52:34;;;;;;;5.25;4.00;;;;;;;;;;4977598;28;20773;-79
2024/03/26 09:55:01;;;;;;;6.30;3.33;;;;;;;;;;4987235;28;20034;-78
2024/03/26 09:57:27;;;;;;;8.77;4.68;;;;;;;;;;4990535;28;20056;-78
2024/03/26 09:59:53;;;;;;;5.95;3.85;;;;;;;;;;4968565;28;20029;-78
2024/03/26 10:02:20;;;;;;;5.38;4.05;;;;;;;;;;4992398;28;20058;-79
2024/03/26 10:04:45;;;;;;;8.70;4.63;;;;;;;;;;4991405;28;20202;-81
2024/03/26 10:07:11;;;;;;;6.65;4.20;;;;;;;;;;4961015;28;20517;-78
2024/03/26 10:09:36;;;;;;;6.93;4.50;;;;;;;;;;4993537;28;20126;-78
2024/03/26 10:12:02;;;;;;;6.15;3.90;;;;;;;;;;4994184;28;20042;-79
2024/03/26 10:14:28;;;;;;;6.25;3.40;;;;;;;;;;5002738;28;20042;-79
2024/03/26 10:16:57;;;;;;;7.18;3.75;;;;;;;;;;5001438;28;20052;-78
2024/03/26 10:19:22;;;;;;;7.05;3.72;;;;;;;;;;5002924;28;20061;-78
2024/03/26 10:21:48;;;;;;;7.32;4.68;;;;;;;;;;5004428;28;20125;-80
2024/03/26 10:24:14;;;;;;;3.30;2.78;;;;;;;;;;4992865;28;20050;-78
2024/03/26 10:26:40;;;;;;;7.97;4.13;;;;;;;;;;4985173;28;20061;-78
2024/03/26 10:29:05;;;;;;;7.45;4.45;;;;;;;;;;4986310;28;20667;-79
2024/03/26 10:31:31;;;;;;;7.70;4.40;;;;;;;;;;4994208;28;20042;-79
2024/03/26 10:33:57;;;;;;;8.13;3.75;;;;;;;;;;4990782;28;20038;-79
2024/03/26 10:36:24;;;;;;;10.02;5.07;;;;;;;;;;4995436;28;20052;-78
2024/03/26 10:38:53;;;;;;;9.60;5.18;;;;;;;;;;4977241;28;20037;-79
2024/03/26 10:41:29;;;;;;;6.75;4.80;;;;;;;;;;4978817;28;20108;-78
2024/03/26 10:43:55;;;;;;;6.75;4.50;;;;;;;;;;4984374;28;20069;-78
2024/03/26 10:46:20;;;;;;;7.57;4.63;;;;;;;;;;4986906;28;20056;-78
2024/03/26 10:48:46;;;;;;;6.10;4.20;;;;;;;;;;4980353;28;20030;-80
2024/03/26 10:51:12;;;;;;;5.72;4.43;;;;;;;;;;4999559;28;20124;-78
2024/03/26 10:53:39;;;;;;;5.93;4.00;;;;;;;;;;4990752;28;20077;-78
2024/03/26 10:56:06;;;;;;;9.35;4.78;;;;;;;;;;4988835;28;20124;-78
2024/03/26 10:58:33;;;;;;;6.43;4.07;;;;;;;;;;4989789;28;20549;-78
2024/03/26 11:01:00;;;;;;;5.63;3.85;;;;;;;;;;4994550;28;20127;-79
2024/03/26 11:03:27;;;;;;;8.13;4.25;;;;;;;;;;4993357;28;20076;-79
2024/03/26 11:05:52;;;;;;;7.95;4.13;;;;;;;;;;4982049;28;20507;-79
2024/03/26 11:08:18;;;;;;;6.18;4.20;;;;;;;;;;4985413;28;20038;-79
2024/03/26 11:11:00;;;;;;;6.20;3.38;;;;;;;;;;4971100;28;20069;-80
2024/03/26 11:13:30;;;;;;;5.72;4.07;;;;;;;;;;4983067;28;20033;-78
2024/03/26 11:15:55;;;;;;;11.50;3.63;;;;;;;;;;4983854;28;20034;-78
2024/03/26 11:18:38;;;;;;;6.85;4.38;;;;;;;;;;4991076;28;20267;-79
2024/03/26 11:21:05;;;;;;;7.47;4.05;;;;;;;;;;4975462;28;20753;-79
2024/03/26 11:23:35;;;;;;;5.10;3.85;;;;;;;;;;4969997;28;20596;-78
2024/03/26 11:26:01;;;;;;;5.95;3.58;;;;;;;;;;4953119;28;20038;-78
2024/03/26 11:28:27;;;;;;;6.43;3.75;;;;;;;;;;4964872;28;20064;-79
2024/03/26 11:30:53;;;;;;;4.72;3.60;;;;;;;;;;4969261;28;20070;-79
2024/03/26 11:33:25;;;;;;;7.32;4.18;;;;;;;;;;4966442;28;20752;-79
2024/03/26 11:35:51;;;;;;;6.18;3.78;;;;;;;;;;4969749;28;20096;-78
2024/03/26 11:38:17;;;;;;;5.68;3.92;;;;;;;;;;4977259;28;20462;-78
2024/03/26 11:40:44;;;;;;;6.88;4.45;;;;;;;;;;4952283;28;20122;-78
2024/03/26 11:43:09;;;;;;;7.88;4.15;;;;;;;;;;4967440;28;20147;-79
2024/03/26 11:45:35;;;;;;;5.82;3.63;;;;;;;;;;4980462;28;20077;-80
2024/03/26 11:48:01;;;;;;;8.40;4.50;;;;;;;;;;4968564;28;21708;-78
2024/03/26 11:50:26;;;;;;;6.40;4.15;;;;;;;;;;4982427;28;20041;-79
2024/03/26 11:52:51;;;;;;;6.03;4.32;;;;;;;;;;4967280;28;20103;-80
2024/03/26 11:55:17;;;;;;;4.20;3.80;;;;;;;;;;4989121;28;20034;-79
2024/03/26 11:57:42;;;;;;;5.05;3.45;;;;;;;;;;4960238;28;20132;-79
2024/03/26 12:00:09;;;;;;;6.97;4.18;;;;;;;;;;4982402;28;20077;-80
2024/03/26 12:02:35;;;;;;;5.75;4.53;;;;;;;;;;4987495;28;20038;-78
2024/03/26 12:05:03;;;;;;;5.90;3.80;;;;;;;;;;4987156;28;20034;-78
2024/03/26 12:07:31;;;;;;;4.97;3.45;;;;;;;;;;4994647;28;20037;-78
2024/03/26 12:09:58;;;;;;;4.88;3.10;;;;;;;;;;4990278;28;20093;-79
2024/03/26 12:12:24;;;;;;;4.00;3.15;;;;;;;;;;4993918;28;20042;-79
2024/03/26 12:14:50;;;;;;;6.60;4.35;;;;;;;;;;4991338;28;20042;-79
2024/03/26 12:17:16;;;;;;;6.28;3.70;;;;;;;;;;4995172;28;20037;-79
2024/03/26 12:19:43;;;;;;;5.88;4.00;;;;;;;;;;4999190;28;20088;-79
2024/03/26 12:22:16;;;;;;;5.68;4.10;;;;;;;;;;4996792;28;20129;-79
2024/03/26 12:24:41;;;;;;;6.90;4.00;;;;;;;;;;4993429;28;20091;-78
2024/03/26 12:27:06;;;;;;;5.10;3.95;;;;;;;;;;4997490;28;20548;-78
2024/03/26 12:29:32;;;;;;;5.68;3.95;;;;;;;;;;4994674;28;20119;-78
2024/03/26 12:31:58;;;;;;;5.68;3.85;;;;;;;;;;4987232;28;20042;-79
2024/03/26 12:34:25;;;;;;;7.72;4.40;;;;;;;;;;4994881;28;20114;-78
2024/03/26 12:36:50;;;;;;;7.13;4.18;;;;;;;;;;5000836;28;20068;-78
2024/03/26 12:39:16;;;;;;;8.88;3.90;;;;;;;;;;4994701;28;20390;-78
2024/03/26 12:41:41;;;;;;;5.43;4.65;;;;;;;;;;4988777;28;20073;-78
2024/03/26 12:44:11;;;;;;;5.60;3.83;;;;;;;;;;4995578;28;20053;-78
2024/03/26 12:46:36;;;;;;;4.93;3.30;;;;;;;;;;4987071;28;20044;-78
2024/03/26 12:49:05;;;;;;;6.60;4.50;;;;;;;;;;4992050;28;20112;-78
2024/03/26 12:51:32;;;;;;;5.80;3.45;;;;;;;;;;4994601;28;20069;-79
2024/03/26 12:54:05;;;;;;;6.28;4.22;;;;;;;;;;4975923;28;20038;-79
2024/03/26 12:56:31;;;;;;;4.78;3.13;;;;;;;;;;4976262;28;20045;-79
2024/03/26 12:58:58;;;;;;;7.28;4.47;;;;;;;;;;5000152;28;20049;-77
2024/03/26 13:01:23;;;;;;;5.93;3.45;;;;;;;;;;4998182;28;20116;-79
2024/03/26 13:03:49;;;;;;;6.18;4.18;;;;;;;;;;4973685;28;20144;-79
2024/03/26 13:06:14;;;;;;;6.00;3.83;;;;;;;;;;4990936;28;20045;-77
2024/03/26 13:08:41;;;;;;;4.78;3.70;;;;;;;;;;4991754;28;20052;-77
2024/03/26 13:11:11;;;;;;;4.95;3.15;;;;;;;;;;4957935;28;20775;-76
2024/03/26 13:13:37;;;;;;;5.45;3.65;;;;;;;;;;4990838;28;20034;-77
2024/03/26 13:16:03;;;;;;;4.85;3.88;;;;;;;;;;4977637;28;20045;-78
2024/03/26 13:18:28;;;;;;;4.95;3.75;;;;;;;;;;4977211;28;20065;-78
2024/03/26 13:20:54;;;;;;;5.50;3.72;;;;;;;;;;4977970;28;20064;-78
2024/03/26 13:23:19;;;;;;;7.63;4.00;;;;;;;;;;4989198;28;20049;-79
2024/03/26 13:25:44;;;;;;;3.50;3.20;;;;;;;;;;4984389;28;20080;-78
2024/03/26 13:28:10;;;;;;;6.28;4.50;;;;;;;;;;4986391;28;20120;-77
2024/03/26 13:30:36;;;;;;;7.55;5.03;;;;;;;;;;4990750;28;20460;-78
2024/03/26 13:33:01;;;;;;;4.55;3.67;;;;;;;;;;4979143;28;20033;-76
2024/03/26 13:35:26;;;;;;;8.23;4.47;;;;;;;;;;4964824;28;20148;-78
2024/03/26 13:37:52;;;;;;;7.35;4.55;;;;;;;;;;4991995;28;20054;-77
2024/03/26 13:40:18;;;;;;;7.47;4.15;;;;;;;;;;4989776;28;20519;-78
2024/03/26 13:42:46;;;;;;;7.05;4.25;;;;;;;;;;4987636;28;20855;-77
2024/03/26 13:45:11;;;;;;;6.15;4.20;;;;;;;;;;4990486;28;20045;-78
2024/03/26 13:47:37;;;;;;;6.32;4.30;;;;;;;;;;4991217;28;20129;-77
2024/03/26 13:50:02;;;;;;;5.80;4.60;;;;;;;;;;4979776;28;20046;-77
2024/03/26 13:52:27;;;;;;;6.22;4.53;;;;;;;;;;4985400;28;20037;-75
2024/03/26 13:54:53;;;;;;;7.63;4.55;;;;;;;;;;4989757;28;20049;-78
2024/03/26 13:57:18;;;;;;;7.00;4.60;;;;;;;;;;4992405;28;20141;-77
2024/03/26 13:59:45;;;;;;;6.10;4.30;;;;;;;;;;4989474;28;20037;-76
2024/03/26 14:02:10;;;;;;;5.72;4.43;;;;;;;;;;4973284;28;20049;-76
2024/03/26 14:04:36;;;;;;;6.05;4.72;;;;;;;;;;4990295;28;20038;-77
2024/03/26 14:07:02;;;;;;;8.10;5.15;;;;;;;;;;4989715;28;20281;-79
2024/03/26 14:09:28;;;;;;;7.03;5.22;;;;;;;;;;4961338;28;20635;-75
2024/03/26 14:11:53;;;;;;;6.93;4.80;;;;;;;;;;4967965;28;20062;-77
2024/03/26 14:14:18;;;;;;;6.72;5.00;;;;;;;;;;4975690;28;20041;-76
2024/03/26 14:16:44;;;;;;;5.38;4.25;;;;;;;;;;4974188;28;20557;-76
2024/03/26 14:19:09;;;;;;;6.63;5.40;;;;;;;;;;4987837;28;20044;-78
2024/03/26 14:21:34;;;;;;;5.25;3.58;;;;;;;;;;4985812;28;20097;-76
2024/03/26 14:24:00;;;;;;;8.13;4.97;;;;;;;;;;4991748;28;20140;-77
2024/03/26 14:26:25;;;;;;;8.55;5.07;;;;;;;;;;4976536;28;20136;-77
2024/03/26 14:28:51;;;;;;;7.82;4.85;;;;;;;;;;4987225;28;20475;-78
2024/03/26 14:31:22;;;;;;;7.13;5.07;;;;;;;;;;4994227;28;20523;-76
2024/03/26 14:33:48;;;;;;;6.85;5.22;;;;;;;;;;4973209;28;20395;-80
2024/03/26 14:36:13;;;;;;;7.97;5.50;;;;;;;;;;4998014;28;20041;-79